Time;durP1;ratioP1;P1;durP2;ratioP2;P2;SDS_P1;SDS_P2;PMS_P1;PMS_P2;Temp;Humidity;BMP_temperature;BMP_pressure;BME280_temperature;BME280_humidity;BME280_pressure;Samples;Min_cycle;Max_cycle;Signal;HPM_P1;HPM_P2
2023/09/26 00:01:55;;;;;;;5.38;2.70;;;;;;;10.75;100.00;101740.94;6027320;28;20080;-65
2023/09/26 00:04:51;;;;;;;5.57;3.17;;;;;;;10.85;100.00;101751.66;6027100;28;20030;-65
2023/09/26 00:07:48;;;;;;;5.50;2.58;;;;;;;10.95;100.00;101747.31;6026953;28;20027;-65
2023/09/26 00:10:46;;;;;;;5.30;2.95;;;;;;;11.03;100.00;101750.19;6027372;28;20033;-65
2023/09/26 00:13:42;;;;;;;6.70;2.85;;;;;;;11.04;100.00;101746.56;6027261;28;20477;-64
2023/09/26 00:16:37;;;;;;;6.88;3.17;;;;;;;11.00;100.00;101747.78;6026426;28;20042;-64
2023/09/26 00:19:32;;;;;;;5.97;2.70;;;;;;;10.90;100.00;101749.50;6026583;28;20057;-64
2023/09/26 00:22:27;;;;;;;9.40;3.23;;;;;;;10.82;100.00;101741.31;6026527;28;20360;-64
2023/09/26 00:25:23;;;;;;;7.30;2.60;;;;;;;10.80;100.00;101751.19;6026944;28;20034;-64
2023/09/26 00:28:19;;;;;;;6.45;2.60;;;;;;;10.79;100.00;101742.38;6026396;28;20034;-64
2023/09/26 00:31:14;;;;;;;6.90;3.10;;;;;;;10.64;100.00;101730.34;6026350;28;20046;-65
2023/09/26 00:34:10;;;;;;;7.13;3.13;;;;;;;10.64;100.00;101727.69;6026902;28;20037;-64
2023/09/26 00:37:06;;;;;;;5.53;2.72;;;;;;;10.72;100.00;101741.19;6026006;28;20470;-64
2023/09/26 00:40:01;;;;;;;7.88;3.08;;;;;;;10.72;100.00;101747.34;6026133;28;20049;-64
2023/09/26 00:43:00;;;;;;;6.22;3.20;;;;;;;10.58;100.00;101734.31;6026345;28;20073;-64
2023/09/26 00:45:56;;;;;;;9.82;3.22;;;;;;;10.44;100.00;101726.59;6025991;28;20038;-65
2023/09/26 00:48:51;;;;;;;7.53;3.33;;;;;;;10.35;100.00;101724.69;6025851;28;20030;-65
2023/09/26 00:51:47;;;;;;;5.90;3.53;;;;;;;10.27;100.00;101745.63;6026109;28;20064;-65
2023/09/26 00:54:42;;;;;;;10.48;4.45;;;;;;;10.19;100.00;101740.09;6028423;28;20425;-64
2023/09/26 00:57:38;;;;;;;7.77;3.70;;;;;;;10.09;100.00;101723.16;6030326;28;20022;-65
2023/09/26 01:00:33;;;;;;;10.07;3.92;;;;;;;10.12;100.00;101739.69;6046597;28;20034;-65
2023/09/26 01:03:29;;;;;;;7.13;4.03;;;;;;;10.06;100.00;101737.47;6018839;28;20038;-65
2023/09/26 01:06:24;;;;;;;10.43;4.33;;;;;;;9.92;100.00;101719.13;6025084;28;20058;-65
2023/09/26 01:09:19;;;;;;;8.50;4.43;;;;;;;9.96;100.00;101722.41;6025977;28;20524;-65
2023/09/26 01:12:16;;;;;;;10.00;4.23;;;;;;;9.99;100.00;101711.56;6023153;28;20022;-65
2023/09/26 01:15:11;;;;;;;7.95;4.53;;;;;;;10.06;100.00;101716.28;6025627;28;20030;-65
2023/09/26 01:18:10;;;;;;;8.60;4.47;;;;;;;9.94;100.00;101724.34;6024937;28;20034;-65
2023/09/26 01:21:06;;;;;;;14.02;5.60;;;;;;;9.81;100.00;101715.66;6024506;28;20038;-65
2023/09/26 01:24:02;;;;;;;10.90;5.00;;;;;;;9.80;100.00;101716.59;6025780;28;20528;-64
2023/09/26 01:26:57;;;;;;;11.10;4.95;;;;;;;9.75;100.00;101722.25;6025118;28;20041;-64
2023/09/26 01:29:54;;;;;;;9.13;5.17;;;;;;;9.69;100.00;101716.56;6025649;28;20096;-64
2023/09/26 01:32:50;;;;;;;9.27;4.47;;;;;;;9.66;100.00;101722.09;6024775;28;20026;-64
2023/09/26 01:35:46;;;;;;;11.23;5.65;;;;;;;9.62;100.00;101710.88;6025133;28;20459;-64
2023/09/26 01:38:41;;;;;;;11.38;4.55;;;;;;;9.59;100.00;101709.28;6024972;28;20052;-64
2023/09/26 01:41:36;;;;;;;9.13;4.90;;;;;;;9.52;100.00;101699.28;6025570;28;20068;-64
2023/09/26 01:44:32;;;;;;;9.07;5.27;;;;;;;9.53;100.00;101706.28;6025713;28;20088;-65
2023/09/26 01:47:43;;;;;;;9.93;5.37;;;;;;;9.57;100.00;101697.97;6026219;28;20516;-64
2023/09/26 01:50:39;;;;;;;8.95;4.68;;;;;;;9.61;100.00;101703.91;6026631;28;20173;-65
2023/09/26 01:53:34;;;;;;;9.30;4.35;;;;;;;9.76;100.00;101708.03;6030226;28;20034;-64
2023/09/26 01:56:32;;;;;;;7.63;4.10;;;;;;;9.77;100.00;101699.13;6037474;28;20043;-65
2023/09/26 01:59:27;;;;;;;8.13;4.05;;;;;;;9.82;100.00;101702.25;6028774;28;20046;-64
2023/09/26 02:02:22;;;;;;;9.17;4.33;;;;;;;9.88;100.00;101711.56;6029807;28;20485;-65
2023/09/26 02:05:20;;;;;;;6.80;3.80;;;;;;;9.91;100.00;101713.97;6029910;28;20037;-65
2023/09/26 02:08:16;;;;;;;8.02;4.13;;;;;;;9.92;100.00;101713.03;6029560;28;20037;-65
2023/09/26 02:11:11;;;;;;;10.70;4.07;;;;;;;9.91;100.00;101701.56;6029925;28;20034;-65
2023/09/26 02:14:07;;;;;;;7.17;4.13;;;;;;;9.88;100.00;101698.31;6029185;28;20046;-64
2023/09/26 02:17:03;;;;;;;8.98;4.68;;;;;;;9.88;100.00;101691.22;6029176;28;20030;-65
2023/09/26 02:19:59;;;;;;;6.70;3.97;;;;;;;9.82;100.00;101704.91;6029984;28;20417;-65
2023/09/26 02:22:55;;;;;;;8.25;4.15;;;;;;;9.56;100.00;101693.66;6029407;28;20076;-65
2023/09/26 02:25:51;;;;;;;11.10;3.90;;;;;;;9.55;100.00;101689.31;6020982;28;20034;-64
2023/09/26 02:28:46;;;;;;;7.40;3.85;;;;;;;9.51;100.00;101677.25;6029149;28;20062;-64
2023/09/26 02:31:42;;;;;;;6.97;4.43;;;;;;;9.72;100.00;101696.00;6028900;28;20028;-64
2023/09/26 02:34:37;;;;;;;9.33;4.30;;;;;;;9.78;100.00;101692.03;6029688;28;20041;-65
2023/09/26 02:37:32;;;;;;;6.60;4.07;;;;;;;9.67;100.00;101692.84;6028512;28;20038;-65
2023/09/26 02:40:28;;;;;;;7.93;4.00;;;;;;;9.67;100.00;101692.00;6029264;28;20034;-65
2023/09/26 02:43:23;;;;;;;7.07;3.77;;;;;;;9.66;100.00;101690.31;6029149;28;20042;-64
2023/09/26 02:46:18;;;;;;;9.80;4.13;;;;;;;9.68;100.00;101691.03;6027791;28;20405;-65
2023/09/26 02:49:14;;;;;;;7.60;4.03;;;;;;;9.67;100.00;101690.19;6028846;28;20041;-65
2023/09/26 02:52:09;;;;;;;7.00;4.23;;;;;;;9.72;100.00;101696.00;6029268;28;20037;-64
2023/09/26 02:55:05;;;;;;;6.83;3.83;;;;;;;9.69;100.00;101690.91;6028501;28;20034;-64
2023/09/26 02:58:01;;;;;;;10.02;4.30;;;;;;;9.30;100.00;101678.88;6028627;28;20771;-65
2023/09/26 03:00:56;;;;;;;11.13;4.53;;;;;;;9.34;100.00;101696.22;6028883;28;20064;-64
2023/09/26 03:03:53;;;;;;;9.67;5.03;;;;;;;9.28;100.00;101675.50;6024269;28;20037;-64
2023/09/26 03:06:48;;;;;;;11.63;5.30;;;;;;;9.17;100.00;101677.25;6023898;28;20073;-65
2023/09/26 03:09:45;;;;;;;10.37;5.23;;;;;;;9.17;100.00;101685.19;6028638;28;20042;-65
2023/09/26 03:12:44;;;;;;;10.43;5.10;;;;;;;9.20;100.00;101693.75;6028594;28;20030;-65
2023/09/26 03:15:40;;;;;;;12.00;5.43;;;;;;;9.15;100.00;101687.94;6028265;28;20117;-65
2023/09/26 03:18:35;;;;;;;14.23;6.23;;;;;;;9.15;100.00;101685.31;6025777;28;20036;-64
2023/09/26 03:21:31;;;;;;;13.60;6.28;;;;;;;9.14;100.00;101683.59;6027602;28;20424;-64
2023/09/26 03:24:26;;;;;;;14.53;6.83;;;;;;;9.10;100.00;101676.88;6028191;28;20034;-65
2023/09/26 03:27:22;;;;;;;13.03;7.00;;;;;;;9.19;100.00;101686.75;6027617;28;20049;-65
2023/09/26 03:30:18;;;;;;;17.40;7.32;;;;;;;9.15;100.00;101679.16;6028090;28;20050;-65
2023/09/26 03:33:13;;;;;;;14.80;7.47;;;;;;;9.22;100.00;101690.97;6028350;28;20085;-64
2023/09/26 03:36:09;;;;;;;19.40;8.13;;;;;;;9.11;100.00;101672.41;6027626;28;20034;-65
2023/09/26 03:39:05;;;;;;;17.53;7.07;;;;;;;9.19;100.00;101686.75;6027503;28;20371;-65
2023/09/26 03:42:01;;;;;;;15.55;7.35;;;;;;;9.19;100.00;101678.81;6027600;28;20034;-65
2023/09/26 03:44:56;;;;;;;13.68;6.93;;;;;;;9.15;100.00;101671.22;6027149;28;20489;-64
2023/09/26 03:47:51;;;;;;;10.40;5.47;;;;;;;9.23;100.00;101679.44;6026322;28;20044;-64
2023/09/26 03:50:47;;;;;;;12.43;6.63;;;;;;;9.42;100.00;101683.25;6027416;28;20030;-65
2023/09/26 03:53:43;;;;;;;10.80;5.17;;;;;;;9.36;100.00;101683.72;6025622;28;20557;-64
2023/09/26 03:56:38;;;;;;;10.98;5.68;;;;;;;9.18;100.00;101666.56;6027199;28;20046;-64
2023/09/26 03:59:34;;;;;;;13.67;6.00;;;;;;;9.15;100.00;101685.31;6020934;28;20572;-64
2023/09/26 04:02:29;;;;;;;10.50;5.07;;;;;;;9.07;100.00;101677.09;6020263;28;20030;-64
2023/09/26 04:05:25;;;;;;;12.70;6.07;;;;;;;9.07;100.00;101669.16;6027109;28;20277;-65
2023/09/26 04:08:20;;;;;;;11.60;4.90;;;;;;;9.03;100.00;101651.81;6026784;28;20490;-64
2023/09/26 04:11:17;;;;;;;11.40;5.23;;;;;;;9.16;100.00;101672.94;6018443;28;20062;-64
2023/09/26 04:14:12;;;;;;;11.18;5.05;;;;;;;8.98;100.00;101659.22;6015819;28;20034;-64
2023/09/26 04:17:07;;;;;;;11.87;5.60;;;;;;;9.04;100.00;101666.72;6024994;28;20026;-64
2023/09/26 04:20:13;;;;;;;14.40;4.97;;;;;;;9.05;100.00;101665.75;6022832;28;20266;-64
2023/09/26 04:23:08;;;;;;;11.15;4.80;;;;;;;8.85;100.00;101642.59;6025556;28;20030;-65
2023/09/26 04:26:14;;;;;;;12.03;5.17;;;;;;;8.99;100.00;101656.47;6020274;28;20489;-65
2023/09/26 04:29:10;;;;;;;12.00;5.22;;;;;;;8.92;100.00;101638.50;6026698;28;20168;-64
2023/09/26 04:32:05;;;;;;;15.60;5.85;;;;;;;9.00;100.00;101652.03;6026984;28;20419;-65
2023/09/26 04:35:01;;;;;;;7.63;4.30;;;;;;;8.88;100.00;101637.06;6025962;28;20030;-64
2023/09/26 04:37:56;;;;;;;10.00;5.05;;;;;;;8.90;100.00;101627.22;6026468;28;20344;-64
2023/09/26 04:40:51;;;;;;;10.37;5.40;;;;;;;8.94;100.00;101644.56;6026552;28;20045;-64
2023/09/26 04:43:47;;;;;;;10.30;4.93;;;;;;;8.91;100.00;101618.34;6026421;28;20046;-64
2023/09/26 04:46:42;;;;;;;13.13;5.87;;;;;;;8.89;100.00;101630.81;6025513;28;20136;-64
2023/09/26 04:49:39;;;;;;;13.35;5.57;;;;;;;8.83;100.00;101632.09;6026310;28;20038;-64
2023/09/26 04:52:35;;;;;;;9.80;5.20;;;;;;;8.77;100.00;101621.13;6026573;28;20038;-64
2023/09/26 04:55:31;;;;;;;10.05;5.10;;;;;;;8.78;100.00;101634.22;6026221;28;20046;-64
2023/09/26 04:58:26;;;;;;;13.47;4.90;;;;;;;8.70;100.00;101619.88;6026154;28;20089;-64
2023/09/26 05:01:26;;;;;;;10.00;4.63;;;;;;;8.78;100.00;101633.38;6025906;28;20038;-64
2023/09/26 05:04:21;;;;;;;10.13;5.32;;;;;;;8.63;100.00;101613.34;6025927;28;20033;-64
2023/09/26 05:07:16;;;;;;;10.57;5.43;;;;;;;8.58;100.00;101611.06;6025437;28;20030;-64
2023/09/26 05:10:12;;;;;;;12.15;5.28;;;;;;;8.82;100.00;101627.78;6026321;28;20276;-64
2023/09/26 05:13:07;;;;;;;10.63;5.03;;;;;;;8.78;100.00;101636.03;6024464;28;20030;-64
2023/09/26 05:16:03;;;;;;;12.40;5.40;;;;;;;8.67;100.00;101625.41;6025111;28;20092;-65
2023/09/26 05:18:58;;;;;;;13.60;5.20;;;;;;;8.69;100.00;101639.38;6024512;28;20048;-64
2023/09/26 05:21:53;;;;;;;8.87;4.37;;;;;;;8.60;100.00;101640.00;6012579;28;20277;-65
2023/09/26 05:24:48;;;;;;;11.07;5.33;;;;;;;8.46;100.00;101629.59;6023144;28;20092;-64
2023/09/26 05:27:44;;;;;;;10.27;5.23;;;;;;;8.63;100.00;101650.38;6025225;28;20433;-64
2023/09/26 05:30:41;;;;;;;9.73;4.95;;;;;;;8.70;100.00;101651.59;6025795;28;20066;-65
2023/09/26 05:33:37;;;;;;;10.18;5.05;;;;;;;8.66;100.00;101648.38;6025486;28;20034;-64
2023/09/26 05:36:33;;;;;;;10.10;4.63;;;;;;;8.78;100.00;101662.47;6025120;28;20394;-64
2023/09/26 05:39:28;;;;;;;12.55;4.93;;;;;;;8.68;100.00;101642.94;6025429;28;20760;-64
2023/09/26 05:42:23;;;;;;;13.50;5.30;;;;;;;8.85;100.00;101659.31;6025580;28;20077;-64
2023/09/26 05:45:19;;;;;;;10.27;4.95;;;;;;;8.90;100.00;101649.22;6025488;28;20117;-65
2023/09/26 05:48:14;;;;;;;11.50;5.87;;;;;;;9.10;100.00;101647.75;6025007;28;20042;-64
2023/09/26 05:51:09;;;;;;;10.37;5.17;;;;;;;9.12;100.00;101651.13;6025722;28;20398;-65
2023/09/26 05:54:05;;;;;;;9.90;5.27;;;;;;;9.14;100.00;101635.13;6025216;28;20269;-64
2023/09/26 05:57:03;;;;;;;14.65;5.22;;;;;;;9.40;100.00;101634.84;6018818;28;20517;-64
2023/09/26 05:59:58;;;;;;;13.73;6.05;;;;;;;9.71;100.00;101651.91;6020117;28;20061;-64
2023/09/26 06:02:54;;;;;;;10.83;5.37;;;;;;;9.91;100.00;101642.44;6022972;28;20026;-64
2023/09/26 06:05:49;;;;;;;10.13;5.00;;;;;;;10.24;100.00;101634.53;6025112;28;20037;-64
2023/09/26 06:08:46;;;;;;;9.57;5.72;;;;;;;10.18;100.00;101650.91;6024709;28;20043;-64
2023/09/26 06:11:41;;;;;;;13.43;5.80;;;;;;;10.06;100.00;101654.47;6025645;28;20066;-64
2023/09/26 06:14:36;;;;;;;12.00;5.70;;;;;;;10.39;100.00;101630.66;6024263;28;20038;-64
2023/09/26 06:17:32;;;;;;;11.52;5.53;;;;;;;10.93;100.00;101646.56;6024841;28;20042;-64
2023/09/26 06:20:28;;;;;;;15.15;5.78;;;;;;;10.76;100.00;101636.50;6015964;28;20037;-65
2023/09/26 06:23:23;;;;;;;10.43;5.38;;;;;;;10.65;100.00;101663.06;6024676;28;20532;-64
2023/09/26 06:26:19;;;;;;;14.30;6.60;;;;;;;10.63;100.00;101641.94;6013126;28;20034;-65
2023/09/26 06:29:14;;;;;;;14.37;6.20;;;;;;;10.75;100.00;101635.66;6020668;28;20058;-65
2023/09/26 06:32:10;;;;;;;13.70;6.37;;;;;;;11.00;100.00;101655.75;6017085;28;20771;-64
2023/09/26 06:35:05;;;;;;;13.88;6.47;;;;;;;10.96;100.00;101645.47;6024221;28;20641;-65
2023/09/26 06:38:01;;;;;;;13.80;6.38;;;;;;;11.09;100.00;101664.72;6024411;28;20058;-64
2023/09/26 06:41:02;;;;;;;20.60;7.00;;;;;;;11.29;100.00;101658.63;6026561;28;20026;-65
2023/09/26 06:43:57;;;;;;;13.85;6.85;;;;;;;11.13;100.00;101652.91;6028809;28;20101;-65
2023/09/26 06:46:53;;;;;;;15.20;7.20;;;;;;;11.17;100.00;101641.09;6027443;28;20465;-65
2023/09/26 06:49:49;;;;;;;16.60;6.57;;;;;;;11.32;100.00;101653.94;6029176;28;20490;-64
2023/09/26 06:52:44;;;;;;;15.60;6.55;;;;;;;11.74;100.00;101656.63;6028735;28;20114;-65
2023/09/26 06:55:39;;;;;;;13.10;6.60;;;;;;;11.79;100.00;101665.06;6030548;28;20058;-65
2023/09/26 06:58:36;;;;;;;13.90;6.93;;;;;;;11.91;100.00;101650.69;6028344;28;20308;-65
2023/09/26 07:01:33;;;;;;;13.38;7.20;;;;;;;12.33;100.00;101664.78;6028709;28;20476;-65
2023/09/26 07:04:28;;;;;;;14.43;7.47;;;;;;;12.25;100.00;101641.50;6028444;28;20161;-65
2023/09/26 07:07:23;;;;;;;14.83;5.87;;;;;;;12.44;100.00;101619.44;6027880;28;20474;-65
2023/09/26 07:10:19;;;;;;;13.73;7.10;;;;;;;12.82;100.00;101639.97;6028837;28;20034;-65
2023/09/26 07:13:14;;;;;;;22.40;6.93;;;;;;;12.99;100.00;101653.44;6028493;28;20027;-65
2023/09/26 07:16:09;;;;;;;12.47;6.43;;;;;;;13.21;100.00;101656.88;6027883;28;20332;-65
2023/09/26 07:19:04;;;;;;;14.10;6.73;;;;;;;13.24;100.00;101644.09;6032010;28;20038;-66
2023/09/26 07:22:00;;;;;;;16.90;6.93;;;;;;;13.32;100.00;101648.72;6028310;28;20093;-65
2023/09/26 07:24:55;;;;;;;19.35;6.88;;;;;;;13.45;100.00;101630.66;6028284;28;20061;-65
2023/09/26 07:27:50;;;;;;;17.13;6.33;;;;;;;13.77;100.00;101655.16;6027615;28;20034;-65
2023/09/26 07:30:47;;;;;;;12.33;6.40;;;;;;;14.03;100.00;101642.84;6028242;28;20466;-65
2023/09/26 07:33:44;;;;;;;13.15;5.97;;;;;;;14.35;100.00;101641.66;6027572;28;20635;-65
2023/09/26 07:36:39;;;;;;;14.48;5.43;;;;;;;14.62;97.61;101652.31;6027643;28;20034;-63
2023/09/26 07:39:35;;;;;;;19.13;6.07;;;;;;;14.72;95.71;101656.63;6028275;28;20037;-64
2023/09/26 07:42:30;;;;;;;14.97;5.77;;;;;;;14.68;93.62;101651.72;6027932;28;20507;-64
2023/09/26 07:45:25;;;;;;;18.33;5.97;;;;;;;14.93;93.35;101644.81;6035396;28;20277;-65
2023/09/26 07:48:23;;;;;;;13.47;5.87;;;;;;;15.21;93.17;101647.28;6027286;28;20484;-65
2023/09/26 07:51:18;;;;;;;14.57;6.30;;;;;;;15.65;89.39;101652.69;6027700;28;20289;-65
2023/09/26 07:54:13;;;;;;;15.63;5.72;;;;;;;15.70;88.89;101645.03;6027647;28;20033;-65
2023/09/26 07:57:09;;;;;;;14.23;5.57;;;;;;;15.79;88.11;101654.81;6026869;28;20056;-66
2023/09/26 08:00:10;;;;;;;18.87;6.43;;;;;;;15.79;87.18;101660.16;6027616;28;20261;-65
2023/09/26 08:03:05;;;;;;;15.65;6.28;;;;;;;15.74;87.34;101647.22;6027523;28;20118;-65
2023/09/26 08:06:02;;;;;;;14.17;5.77;;;;;;;15.87;87.55;101633.44;6026420;28;20035;-66
2023/09/26 08:08:57;;;;;;;13.02;5.82;;;;;;;16.19;87.40;101630.09;6027573;28;20031;-65
2023/09/26 08:11:52;;;;;;;20.23;6.77;;;;;;;16.13;86.47;101633.41;6027360;28;20084;-65
2023/09/26 08:14:48;;;;;;;12.93;5.73;;;;;;;16.29;85.05;101637.00;6027138;28;20093;-65
2023/09/26 08:17:43;;;;;;;10.82;5.47;;;;;;;16.50;83.58;101633.91;6026726;28;20155;-65
2023/09/26 08:20:38;;;;;;;12.00;5.23;;;;;;;16.72;83.30;101641.38;6027424;28;20113;-65
2023/09/26 08:23:34;;;;;;;14.33;5.87;;;;;;;17.02;81.24;101630.06;6025421;28;20512;-66
2023/09/26 08:26:29;;;;;;;11.77;5.23;;;;;;;17.02;80.46;101610.47;6026275;28;20120;-65
2023/09/26 08:29:24;;;;;;;10.30;4.60;;;;;;;17.01;80.50;101632.94;6026784;28;20285;-65
2023/09/26 08:32:20;;;;;;;10.00;5.13;;;;;;;17.23;81.20;101624.22;6026625;28;20289;-65
2023/09/26 08:35:15;;;;;;;10.20;5.23;;;;;;;17.51;80.03;101620.22;6021043;28;20038;-66
2023/09/26 08:38:10;;;;;;;12.07;4.70;;;;;;;17.82;78.63;101618.53;6024667;28;20430;-65
2023/09/26 08:41:07;;;;;;;11.63;4.87;;;;;;;18.35;75.79;101609.78;6026590;28;20053;-65
2023/09/26 08:44:02;;;;;;;13.77;5.07;;;;;;;18.39;75.66;101626.41;6025389;28;20285;-65
2023/09/26 08:46:58;;;;;;;17.02;4.40;;;;;;;18.67;74.48;101621.44;6025927;28;20073;-65
2023/09/26 08:49:54;;;;;;;12.48;4.40;;;;;;;18.82;73.46;101623.19;6022887;28;20026;-65
2023/09/26 08:52:51;;;;;;;9.00;4.28;;;;;;;18.82;71.78;101607.06;6024024;28;20501;-64
2023/09/26 08:55:49;;;;;;;9.93;4.60;;;;;;;18.90;71.81;101623.13;6021340;28;20112;-65
2023/09/26 08:58:45;;;;;;;13.50;4.95;;;;;;;18.87;73.08;101626.19;6021218;28;20034;-65
2023/09/26 09:01:42;;;;;;;11.60;4.37;;;;;;;19.08;72.83;101622.84;6025078;28;20037;-65
2023/09/26 09:04:42;;;;;;;13.00;4.20;;;;;;;19.30;71.54;101613.09;6020683;28;20046;-65
2023/09/26 09:07:39;;;;;;;11.25;4.25;;;;;;;19.31;72.67;101617.47;6023174;28;20088;-65
2023/09/26 09:10:54;;;;;;;10.48;4.15;;;;;;;19.31;71.86;101595.94;6025565;28;20034;-65
2023/09/26 09:13:49;;;;;;;8.65;4.03;;;;;;;19.51;71.85;101603.34;6025365;28;20026;-65
2023/09/26 09:16:53;;;;;;;9.67;3.97;;;;;;;19.61;70.71;101603.09;6025196;28;20034;-65
2023/09/26 09:19:51;;;;;;;8.00;3.80;;;;;;;19.80;70.32;101590.97;6025747;28;20046;-65
2023/09/26 09:22:47;;;;;;;8.35;3.22;;;;;;;20.28;68.79;101586.88;6025190;28;20117;-64
2023/09/26 09:25:43;;;;;;;8.53;3.80;;;;;;;20.30;68.49;101598.31;6024499;28;20026;-65
2023/09/26 09:28:38;;;;;;;11.55;3.58;;;;;;;20.59;67.32;101582.09;6021269;28;20122;-65
2023/09/26 09:31:33;;;;;;;7.73;3.70;;;;;;;20.19;67.32;101588.84;6025442;28;20037;-65
2023/09/26 09:34:31;;;;;;;8.63;3.60;;;;;;;20.00;68.86;101592.09;6025411;28;20266;-65
2023/09/26 09:37:26;;;;;;;9.93;3.80;;;;;;;20.13;68.70;101593.09;6024606;28;20049;-65
2023/09/26 09:40:23;;;;;;;7.45;3.33;;;;;;;19.96;70.34;101582.69;6025436;28;20034;-65
2023/09/26 09:43:19;;;;;;;7.20;3.33;;;;;;;20.55;69.39;101580.78;6023521;28;20442;-66
2023/09/26 09:46:16;;;;;;;6.85;3.28;;;;;;;20.72;67.78;101584.94;6024554;28;20026;-64
2023/09/26 09:49:12;;;;;;;10.60;3.67;;;;;;;20.79;66.41;101572.34;6025265;28;20022;-64
2023/09/26 09:52:09;;;;;;;7.15;3.03;;;;;;;20.76;65.84;101567.38;6025101;28;20108;-63
2023/09/26 09:55:08;;;;;;;5.80;2.50;;;;;;;20.76;66.56;101573.56;6025933;28;20042;-64
2023/09/26 09:58:08;;;;;;;6.13;3.05;;;;;;;21.11;66.28;101577.28;6022725;28;20030;-64
2023/09/26 10:01:04;;;;;;;5.47;2.83;;;;;;;21.15;64.51;101577.72;6019592;28;20540;-63
2023/09/26 10:03:59;;;;;;;5.97;2.97;;;;;;;21.05;65.00;101571.78;6043223;28;20474;-63
2023/09/26 10:06:55;;;;;;;7.57;2.67;;;;;;;21.35;64.12;101578.72;6027549;28;20034;-63
2023/09/26 10:09:51;;;;;;;7.35;3.45;;;;;;;21.12;63.97;101584.34;6021947;28;20042;-63
2023/09/26 10:12:47;;;;;;;6.93;4.30;;;;;;;21.24;63.35;101558.50;6024786;28;20038;-63
2023/09/26 10:16:05;;;;;;;5.57;3.05;;;;;;;21.24;64.08;101563.06;6023303;28;20039;-65
2023/09/26 10:19:00;;;;;;;15.25;9.40;;;;;;;21.71;61.35;101557.84;6023759;28;20096;-65
2023/09/26 10:22:18;;;;;;;25.20;15.10;;;;;;;21.84;61.38;101548.97;6029017;28;20062;-65
2023/09/26 10:25:18;;;;;;;7.40;3.17;;;;;;;22.04;60.12;101566.13;6028915;28;20269;-66
2023/09/26 10:28:16;;;;;;;6.70;2.60;;;;;;;21.98;61.35;101558.00;6020335;28;20034;-66
2023/09/26 10:31:11;;;;;;;3.45;2.17;;;;;;;22.48;59.33;101558.44;6023821;28;20485;-66
2023/09/26 10:34:07;;;;;;;8.55;2.40;;;;;;;23.01;56.78;101554.00;6028988;28;20042;-65
2023/09/26 10:37:06;;;;;;;4.35;2.63;;;;;;;22.91;57.39;101550.03;6028368;28;20061;-65
2023/09/26 10:40:03;;;;;;;3.35;2.22;;;;;;;22.65;56.11;101541.88;6028770;28;20505;-66
2023/09/26 10:42:59;;;;;;;4.07;2.60;;;;;;;22.47;57.21;101529.75;6025522;28;20128;-66
2023/09/26 10:45:55;;;;;;;8.82;2.42;;;;;;;22.85;56.50;101537.34;6024635;28;20044;-66
2023/09/26 10:48:50;;;;;;;6.53;2.25;;;;;;;22.70;55.69;101531.25;6024201;28;20031;-66
2023/09/26 10:51:46;;;;;;;5.50;2.45;;;;;;;22.67;54.95;101539.78;6026033;28;20478;-66
2023/09/26 10:54:41;;;;;;;5.70;2.58;;;;;;;22.86;54.92;101544.38;6030128;28;20030;-64
2023/09/26 10:57:37;;;;;;;6.32;2.70;;;;;;;22.66;54.96;101536.25;6026888;28;20065;-64
2023/09/26 11:00:33;;;;;;;5.75;2.97;;;;;;;23.09;53.99;101552.97;6019734;28;20069;-64
2023/09/26 11:03:29;;;;;;;8.17;2.87;;;;;;;23.08;53.70;101548.59;6024452;28;20027;-63
2023/09/26 11:06:24;;;;;;;7.28;2.60;;;;;;;23.17;54.11;101527.56;6011691;28;20042;-64
2023/09/26 11:09:19;;;;;;;4.87;2.33;;;;;;;23.17;54.27;101535.69;6019805;28;20041;-64
2023/09/26 11:12:15;;;;;;;5.00;2.30;;;;;;;23.97;52.42;101529.97;6018904;28;20065;-64
2023/09/26 11:15:10;;;;;;;5.97;2.43;;;;;;;23.89;51.74;101519.38;6023824;28;20089;-64
2023/09/26 11:18:11;;;;;;;4.93;2.42;;;;;;;23.87;51.90;101534.97;6022662;28;20036;-64
2023/09/26 11:21:06;;;;;;;7.10;2.70;;;;;;;23.34;52.61;101535.06;6024727;28;20034;-64
2023/09/26 11:24:21;;;;;;;7.13;2.20;;;;;;;23.50;51.70;101528.41;6012993;28;20073;-64
2023/09/26 11:27:17;;;;;;;3.80;2.30;;;;;;;24.03;50.80;101515.53;6024928;28;20278;-64
2023/09/26 11:30:16;;;;;;;6.05;2.47;;;;;;;24.62;48.84;101518.00;6023052;28;20042;-63
2023/09/26 11:33:12;;;;;;;4.28;2.25;;;;;;;24.66;48.14;101513.78;6018918;28;20050;-64
2023/09/26 11:36:08;;;;;;;6.63;2.10;;;;;;;24.78;47.48;101507.44;6016524;28;20092;-64
2023/09/26 11:39:05;;;;;;;6.25;2.40;;;;;;;24.39;48.07;101496.00;6024901;28;20280;-64
2023/09/26 11:42:11;;;;;;;6.43;2.38;;;;;;;24.24;49.22;101504.44;6022790;28;20066;-64
2023/09/26 11:45:07;;;;;;;3.83;2.25;;;;;;;24.13;50.03;101488.84;6020787;28;20041;-64
2023/09/26 11:48:03;;;;;;;7.10;2.13;;;;;;;24.20;49.36;101484.22;6020635;28;20034;-65
2023/09/26 11:50:59;;;;;;;3.65;2.17;;;;;;;24.43;50.49;101479.09;6022729;28;20498;-64
2023/09/26 11:53:54;;;;;;;3.58;2.10;;;;;;;24.61;48.24;101489.19;6024766;28;20049;-64
2023/09/26 11:56:52;;;;;;;5.15;1.98;;;;;;;24.53;49.23;101468.59;6022954;28;20474;-66
2023/09/26 11:59:47;;;;;;;4.15;1.92;;;;;;;24.67;48.45;101467.47;6016186;28;20113;-64
2023/09/26 12:02:51;;;;;;;3.88;2.00;;;;;;;25.00;48.01;101467.22;6024591;28;20048;-64
2023/09/26 12:05:47;;;;;;;2.78;1.60;;;;;;;24.97;47.42;101469.53;6024413;28;20501;-64
2023/09/26 12:08:43;;;;;;;5.18;2.10;;;;;;;24.46;49.53;101469.69;6019773;28;20042;-65
2023/09/26 12:11:38;;;;;;;4.75;2.10;;;;;;;24.39;49.56;101464.31;6021268;28;20549;-65
2023/09/26 12:14:34;;;;;;;5.33;1.90;;;;;;;24.26;49.68;101450.81;6018483;28;20026;-64
2023/09/26 12:17:29;;;;;;;4.57;1.77;;;;;;;24.84;47.36;101462.31;6022498;28;20042;-64
2023/09/26 12:20:25;;;;;;;4.00;2.00;;;;;;;25.35;46.01;101459.38;6024350;28;20043;-64
2023/09/26 12:23:21;;;;;;;6.93;1.88;;;;;;;25.62;45.96;101466.19;6017758;28;20390;-64
2023/09/26 12:26:17;;;;;;;3.20;1.95;;;;;;;25.49;45.13;101452.78;6013390;28;20030;-63
2023/09/26 12:29:15;;;;;;;3.83;1.97;;;;;;;25.33;47.00;101450.59;6013426;28;20497;-64
2023/09/26 12:32:11;;;;;;;3.13;1.75;;;;;;;25.38;45.79;101457.00;6024521;28;20841;-64
2023/09/26 12:35:06;;;;;;;5.03;2.00;;;;;;;25.42;45.07;101449.25;6018461;28;20031;-64
2023/09/26 12:38:02;;;;;;;3.45;1.67;;;;;;;25.47;46.20;101440.44;6015011;28;20030;-65
2023/09/26 12:40:57;;;;;;;4.35;1.80;;;;;;;25.54;46.29;101436.63;6012885;28;20043;-64
2023/09/26 12:43:52;;;;;;;5.17;1.60;;;;;;;25.28;45.27;101442.28;6018057;28;20386;-64
2023/09/26 12:46:48;;;;;;;3.78;1.98;;;;;;;25.13;45.17;101439.09;6010966;28;20501;-64
2023/09/26 12:49:46;;;;;;;4.53;1.50;;;;;;;25.44;45.53;101431.66;6015791;28;20109;-64
2023/09/26 12:52:41;;;;;;;2.72;1.77;;;;;;;25.11;45.98;101436.59;6017210;28;20050;-65
2023/09/26 12:55:37;;;;;;;5.20;1.70;;;;;;;25.02;46.44;101426.28;6020711;28;20056;-64
2023/09/26 12:58:32;;;;;;;2.93;1.80;;;;;;;25.13;46.10;101444.53;6015087;28;20437;-64
2023/09/26 13:01:28;;;;;;;3.53;1.70;;;;;;;25.33;45.55;101423.44;6019766;28;20058;-64
2023/09/26 13:04:24;;;;;;;5.38;1.88;;;;;;;25.41;45.72;101426.69;6022275;28;20038;-64
2023/09/26 13:07:20;;;;;;;3.90;1.83;;;;;;;25.62;45.33;101427.31;6015876;28;20114;-64
2023/09/26 13:10:15;;;;;;;3.58;1.73;;;;;;;24.87;45.81;101406.78;6011787;28;20038;-64
2023/09/26 13:13:12;;;;;;;2.43;1.67;;;;;;;25.07;45.22;101423.72;6014703;28;20052;-64
2023/09/26 13:16:08;;;;;;;2.70;1.70;;;;;;;25.42;45.32;101419.38;6016837;28;20883;-64
2023/09/26 13:19:03;;;;;;;3.35;1.60;;;;;;;25.66;44.88;101418.47;6015186;28;20030;-64
2023/09/26 13:21:59;;;;;;;3.53;1.60;;;;;;;25.73;45.32;101423.84;6026820;28;20037;-65
2023/09/26 13:24:54;;;;;;;2.40;1.60;;;;;;;25.60;44.97;101413.16;6033113;28;20080;-65
2023/09/26 13:27:49;;;;;;;3.90;1.90;;;;;;;25.74;44.33;101420.88;6023400;28;20281;-65
2023/09/26 13:30:45;;;;;;;4.27;1.87;;;;;;;26.03;44.89;101406.50;6010604;28;20478;-64
2023/09/26 13:33:40;;;;;;;2.88;1.60;;;;;;;25.94;45.22;101386.13;6016361;28;20031;-64